Time;durP1;ratioP1;P1;durP2;ratioP2;P2;SDS_P1;SDS_P2;PMS_P1;PMS_P2;Temp;Humidity;BMP_temperature;BMP_pressure;BME280_temperature;BME280_humidity;BME280_pressure;Samples;Min_cycle;Max_cycle;Signal;HPM_P1;HPM_P2
2021/12/29 00:01:19;;;;;;;4.20;2.08;;;;;;;;;;5095901;28;20239;-59
2021/12/29 00:03:45;;;;;;;2.85;1.70;;;;;;;;;;5104212;28;20028;-59
2021/12/29 00:06:10;;;;;;;2.70;1.70;;;;;;;;;;5112355;28;20123;-58
2021/12/29 00:08:35;;;;;;;3.70;1.70;;;;;;;;;;5095493;28;20024;-58
2021/12/29 00:11:01;;;;;;;2.22;1.60;;;;;;;;;;5096226;28;20070;-58
2021/12/29 00:13:26;;;;;;;5.13;2.17;;;;;;;;;;5095585;28;20044;-59
2021/12/29 00:15:57;;;;;;;2.35;1.70;;;;;;;;;;5095660;28;20039;-58
2021/12/29 00:18:22;;;;;;;2.33;1.67;;;;;;;;;;5095796;28;20538;-59
2021/12/29 00:20:48;;;;;;;4.50;1.90;;;;;;;;;;5094690;28;20108;-60
2021/12/29 00:23:13;;;;;;;2.58;1.73;;;;;;;;;;5095201;28;20427;-59
2021/12/29 00:25:38;;;;;;;3.05;1.52;;;;;;;;;;5104250;28;20028;-58
2021/12/29 00:28:04;;;;;;;2.38;1.45;;;;;;;;;;5115551;28;20039;-59
2021/12/29 00:30:29;;;;;;;4.93;1.88;;;;;;;;;;5111271;28;20495;-58
2021/12/29 00:32:55;;;;;;;2.63;1.65;;;;;;;;;;5095345;28;20549;-58
2021/12/29 00:35:20;;;;;;;3.03;1.55;;;;;;;;;;5095379;28;20032;-58
2021/12/29 00:37:45;;;;;;;3.78;1.73;;;;;;;;;;5096003;28;20012;-58
2021/12/29 00:40:11;;;;;;;2.47;1.40;;;;;;;;;;5095333;28;20028;-58
2021/12/29 00:42:38;;;;;;;3.38;1.70;;;;;;;;;;5084235;28;20449;-59
2021/12/29 00:45:03;;;;;;;3.25;1.80;;;;;;;;;;5074923;28;20537;-59
2021/12/29 00:47:33;;;;;;;2.67;1.35;;;;;;;;;;5075404;28;20029;-59
2021/12/29 00:50:00;;;;;;;3.40;1.87;;;;;;;;;;5075246;28;20082;-59
2021/12/29 00:52:25;;;;;;;4.90;1.80;;;;;;;;;;5074862;28;20422;-59
2021/12/29 00:54:51;;;;;;;2.28;1.67;;;;;;;;;;5074616;28;20038;-59
2021/12/29 00:57:16;;;;;;;5.18;2.00;;;;;;;;;;5074370;28;20045;-59
2021/12/29 00:59:41;;;;;;;2.08;1.48;;;;;;;;;;5074837;28;20036;-59
2021/12/29 01:02:07;;;;;;;5.07;1.65;;;;;;;;;;5075218;28;20024;-59
2021/12/29 01:04:32;;;;;;;5.65;1.83;;;;;;;;;;5074450;28;20489;-59
2021/12/29 01:06:57;;;;;;;3.35;1.38;;;;;;;;;;5095012;28;20039;-59
2021/12/29 01:09:22;;;;;;;5.35;1.92;;;;;;;;;;5098161;28;20032;-59
2021/12/29 01:11:48;;;;;;;1.88;1.23;;;;;;;;;;5094485;28;20128;-60
2021/12/29 01:14:13;;;;;;;2.05;1.38;;;;;;;;;;5094442;28;20051;-60
2021/12/29 01:16:39;;;;;;;1.92;1.02;;;;;;;;;;5094730;28;20021;-59
2021/12/29 01:19:07;;;;;;;2.65;1.38;;;;;;;;;;5094402;28;20052;-59
2021/12/29 01:21:33;;;;;;;1.70;1.30;;;;;;;;;;5094230;28;20528;-59
2021/12/29 01:23:59;;;;;;;2.55;1.25;;;;;;;;;;5094677;28;20040;-59
2021/12/29 01:26:24;;;;;;;2.63;1.08;;;;;;;;;;5093900;28;20085;-59
2021/12/29 01:28:49;;;;;;;4.28;1.23;;;;;;;;;;5094788;28;20093;-59
2021/12/29 01:31:14;;;;;;;2.67;1.33;;;;;;;;;;5094173;28;20514;-59
2021/12/29 01:33:40;;;;;;;2.17;1.13;;;;;;;;;;5094029;28;20051;-59
2021/12/29 01:36:05;;;;;;;2.30;1.60;;;;;;;;;;5093909;28;20400;-59
2021/12/29 01:38:30;;;;;;;1.38;1.13;;;;;;;;;;5085926;28;21648;-59
2021/12/29 01:40:55;;;;;;;2.28;1.58;;;;;;;;;;5089503;28;20033;-59
2021/12/29 01:43:20;;;;;;;3.35;1.40;;;;;;;;;;5073550;28;20039;-59
2021/12/29 01:45:46;;;;;;;3.25;1.83;;;;;;;;;;5073464;28;20057;-59
2021/12/29 01:48:12;;;;;;;2.28;1.50;;;;;;;;;;5073326;28;20036;-59
2021/12/29 01:50:38;;;;;;;3.33;2.03;;;;;;;;;;5073676;28;20060;-59
2021/12/29 01:53:08;;;;;;;3.85;2.28;;;;;;;;;;5074015;28;20540;-59
2021/12/29 01:55:34;;;;;;;2.55;1.63;;;;;;;;;;5073333;28;20033;-59
2021/12/29 01:57:59;;;;;;;5.00;1.70;;;;;;;;;;5073367;28;20117;-59
2021/12/29 02:00:26;;;;;;;5.03;2.10;;;;;;;;;;5073322;28;20037;-59
2021/12/29 02:02:52;;;;;;;5.43;2.28;;;;;;;;;;5073205;28;20071;-59
2021/12/29 02:05:17;;;;;;;4.57;1.83;;;;;;;;;;5073320;28;20056;-59
2021/12/29 02:07:43;;;;;;;3.30;1.90;;;;;;;;;;5104013;28;20108;-59
2021/12/29 02:10:09;;;;;;;4.40;1.85;;;;;;;;;;5093435;28;20040;-59
2021/12/29 02:12:35;;;;;;;5.70;1.90;;;;;;;;;;5093267;28;20036;-59
2021/12/29 02:15:02;;;;;;;5.22;1.75;;;;;;;;;;5074874;28;20063;-58
2021/12/29 02:17:28;;;;;;;3.15;1.58;;;;;;;;;;5093073;28;20422;-58
2021/12/29 02:19:56;;;;;;;3.42;1.75;;;;;;;;;;5094030;28;20024;-59
2021/12/29 02:22:42;;;;;;;3.20;1.80;;;;;;;;;;5093362;28;20496;-60
2021/12/29 02:27:43;;;;;;;2.55;1.50;;;;;;;;;;5072859;28;20029;-58
2021/12/29 02:30:09;;;;;;;3.15;2.00;;;;;;;;;;5072809;28;20401;-58
2021/12/29 02:32:34;;;;;;;3.60;1.80;;;;;;;;;;5072841;28;20115;-58
2021/12/29 02:34:59;;;;;;;2.65;2.03;;;;;;;;;;5083235;28;20034;-58
2021/12/29 02:37:25;;;;;;;4.40;2.35;;;;;;;;;;5093095;28;20039;-58
2021/12/29 02:39:51;;;;;;;3.13;1.88;;;;;;;;;;5093559;28;20036;-58
2021/12/29 02:42:19;;;;;;;2.47;1.67;;;;;;;;;;5092486;28;20353;-58
2021/12/29 02:44:46;;;;;;;1.92;1.65;;;;;;;;;;5093339;28;20089;-58
2021/12/29 02:47:11;;;;;;;1.80;1.40;;;;;;;;;;5093651;28;20468;-58
2021/12/29 02:49:36;;;;;;;2.72;1.60;;;;;;;;;;5093233;28;20055;-58
2021/12/29 02:52:02;;;;;;;3.88;1.83;;;;;;;;;;5092944;28;20035;-58
2021/12/29 02:54:27;;;;;;;3.30;1.50;;;;;;;;;;5092257;28;20046;-58
2021/12/29 02:56:56;;;;;;;2.90;1.55;;;;;;;;;;5092581;28;20036;-59
2021/12/29 02:59:22;;;;;;;1.55;1.27;;;;;;;;;;5074535;28;20438;-59
2021/12/29 03:01:47;;;;;;;1.73;1.17;;;;;;;;;;5092081;28;20035;-59
2021/12/29 03:04:12;;;;;;;3.85;1.55;;;;;;;;;;5092818;28;20036;-59
2021/12/29 03:06:38;;;;;;;1.80;1.30;;;;;;;;;;5092824;28;20364;-58
2021/12/29 03:09:05;;;;;;;2.38;1.40;;;;;;;;;;5096910;28;20063;-58
2021/12/29 03:11:30;;;;;;;2.38;1.13;;;;;;;;;;5092583;28;20054;-59
2021/12/29 03:13:55;;;;;;;4.82;1.08;;;;;;;;;;5093082;28;20449;-58
2021/12/29 03:16:20;;;;;;;3.28;2.30;;;;;;;;;;5092510;28;20082;-59
2021/12/29 03:18:46;;;;;;;3.47;1.27;;;;;;;;;;5092246;28;20056;-58
2021/12/29 03:21:12;;;;;;;3.10;1.30;;;;;;;;;;5092143;28;20032;-58
2021/12/29 03:23:37;;;;;;;1.88;1.42;;;;;;;;;;5092897;28;20043;-59
2021/12/29 03:26:02;;;;;;;1.30;1.20;;;;;;;;;;5092930;28;20024;-59
2021/12/29 03:28:28;;;;;;;2.25;1.40;;;;;;;;;;5092360;28;20115;-58
2021/12/29 03:30:55;;;;;;;1.95;0.90;;;;;;;;;;5092609;28;20032;-58
2021/12/29 03:33:21;;;;;;;2.17;1.20;;;;;;;;;;5092464;28;20021;-58
2021/12/29 03:35:48;;;;;;;2.67;1.10;;;;;;;;;;5092442;28;20032;-58
2021/12/29 03:38:16;;;;;;;3.10;1.15;;;;;;;;;;5092393;28;20031;-58
2021/12/29 03:40:41;;;;;;;1.83;1.02;;;;;;;;;;5092823;28;20039;-57
2021/12/29 03:43:08;;;;;;;4.10;1.50;;;;;;;;;;5092234;28;20028;-57
2021/12/29 03:45:33;;;;;;;2.78;1.40;;;;;;;;;;5092296;28;20426;-58
2021/12/29 03:47:59;;;;;;;4.32;0.95;;;;;;;;;;5092268;28;20039;-58
2021/12/29 03:50:24;;;;;;;3.10;0.73;;;;;;;;;;5092432;28;20071;-58
2021/12/29 03:52:50;;;;;;;3.22;1.20;;;;;;;;;;5092603;28;20395;-58
2021/12/29 03:55:15;;;;;;;1.77;1.00;;;;;;;;;;5093788;28;20100;-58
2021/12/29 03:57:41;;;;;;;3.17;1.33;;;;;;;;;;5096085;28;20040;-59
2021/12/29 04:00:08;;;;;;;4.10;1.42;;;;;;;;;;5096230;28;20040;-59
2021/12/29 04:02:33;;;;;;;2.08;1.40;;;;;;;;;;5096018;28;20142;-58
2021/12/29 04:04:58;;;;;;;2.53;1.10;;;;;;;;;;5096569;28;20134;-58
2021/12/29 04:07:24;;;;;;;2.80;1.17;;;;;;;;;;5095388;28;20028;-58
2021/12/29 04:09:49;;;;;;;1.67;0.82;;;;;;;;;;5077767;28;20093;-59
2021/12/29 04:12:14;;;;;;;4.15;1.10;;;;;;;;;;5095833;28;20032;-59
2021/12/29 04:14:39;;;;;;;4.03;0.90;;;;;;;;;;5060284;28;20401;-60
2021/12/29 04:17:09;;;;;;;3.53;1.10;;;;;;;;;;5095743;28;20020;-60
2021/12/29 04:22:19;;;;;;;1.92;0.80;;;;;;;;;;5095673;28;20182;-60
2021/12/29 04:24:45;;;;;;;5.00;1.30;;;;;;;;;;5095144;28;20062;-60
2021/12/29 04:27:10;;;;;;;2.00;0.88;;;;;;;;;;5088127;28;20033;-60
2021/12/29 04:29:35;;;;;;;3.00;1.15;;;;;;;;;;5075455;28;20078;-60
2021/12/29 04:32:00;;;;;;;3.25;0.80;;;;;;;;;;5091490;28;20575;-59
2021/12/29 04:34:26;;;;;;;2.17;0.68;;;;;;;;;;5074850;28;20028;-59
2021/12/29 04:36:51;;;;;;;1.83;0.95;;;;;;;;;;5075144;28;20025;-59
2021/12/29 04:39:16;;;;;;;4.03;1.23;;;;;;;;;;5075262;28;20025;-59
2021/12/29 04:41:41;;;;;;;5.10;1.52;;;;;;;;;;5074753;28;20033;-59
2021/12/29 04:44:07;;;;;;;2.97;1.05;;;;;;;;;;5075182;28;20086;-59
2021/12/29 04:46:38;;;;;;;2.92;1.00;;;;;;;;;;5074436;28;20039;-60
2021/12/29 04:49:04;;;;;;;1.98;0.82;;;;;;;;;;5074909;28;20037;-59
2021/12/29 04:51:36;;;;;;;3.60;1.17;;;;;;;;;;5074899;28;20041;-59
2021/12/29 04:54:03;;;;;;;1.90;0.82;;;;;;;;;;5074964;28;20040;-59
2021/12/29 04:56:28;;;;;;;6.03;1.05;;;;;;;;;;5074868;28;20036;-59
2021/12/29 04:58:54;;;;;;;2.17;0.95;;;;;;;;;;5075014;28;20041;-60
2021/12/29 05:01:19;;;;;;;5.38;1.05;;;;;;;;;;5075648;28;20067;-59
2021/12/29 05:03:45;;;;;;;1.60;0.90;;;;;;;;;;5094397;28;20104;-59
2021/12/29 05:08:36;;;;;;;8.20;1.52;;;;;;;;;;5084103;28;20109;-60
2021/12/29 05:11:02;;;;;;;4.35;1.00;;;;;;;;;;5074594;28;20384;-59
2021/12/29 05:13:28;;;;;;;2.05;1.00;;;;;;;;;;5092275;28;20419;-59
2021/12/29 05:15:55;;;;;;;3.28;1.27;;;;;;;;;;5094497;28;20028;-59
2021/12/29 05:18:21;;;;;;;2.22;0.85;;;;;;;;;;5094549;28;20026;-60
2021/12/29 05:20:46;;;;;;;2.83;1.30;;;;;;;;;;5083690;28;20528;-60
2021/12/29 05:23:11;;;;;;;7.47;1.60;;;;;;;;;;5079374;28;20054;-60
2021/12/29 05:25:37;;;;;;;4.35;1.20;;;;;;;;;;5092982;28;20085;-59
2021/12/29 05:28:02;;;;;;;2.42;1.00;;;;;;;;;;5094077;28;20032;-59
2021/12/29 05:30:27;;;;;;;2.95;1.15;;;;;;;;;;5094476;28;20074;-60
2021/12/29 05:32:52;;;;;;;3.95;1.50;;;;;;;;;;5094382;28;20123;-60
2021/12/29 05:35:18;;;;;;;3.70;1.27;;;;;;;;;;5094156;28;20028;-59
2021/12/29 05:37:43;;;;;;;3.90;1.27;;;;;;;;;;5094822;28;20368;-59
2021/12/29 05:40:09;;;;;;;4.22;1.23;;;;;;;;;;5094401;28;20024;-59
2021/12/29 05:42:34;;;;;;;2.95;1.40;;;;;;;;;;5093480;28;20031;-59
2021/12/29 05:45:01;;;;;;;2.92;1.17;;;;;;;;;;5094035;28;20029;-59
2021/12/29 05:47:26;;;;;;;2.92;1.02;;;;;;;;;;5093919;28;20016;-60
2021/12/29 05:49:51;;;;;;;2.35;0.77;;;;;;;;;;5094372;28;20486;-60
2021/12/29 05:52:18;;;;;;;5.00;1.20;;;;;;;;;;5093833;28;20028;-59
2021/12/29 05:54:43;;;;;;;3.95;1.27;;;;;;;;;;5093545;28;20075;-60
2021/12/29 05:57:08;;;;;;;3.78;1.40;;;;;;;;;;5093530;28;20067;-61
2021/12/29 05:59:35;;;;;;;2.03;0.70;;;;;;;;;;5093589;28;20558;-60
2021/12/29 06:02:00;;;;;;;3.20;0.93;;;;;;;;;;5094209;28;20089;-60
2021/12/29 06:04:25;;;;;;;3.33;0.98;;;;;;;;;;5093357;28;20024;-59
2021/12/29 06:06:50;;;;;;;3.53;1.02;;;;;;;;;;5093271;28;20039;-59
2021/12/29 06:09:15;;;;;;;2.08;0.82;;;;;;;;;;5092595;28;20032;-57
2021/12/29 06:11:41;;;;;;;4.05;0.93;;;;;;;;;;5093379;28;20028;-58
2021/12/29 06:14:06;;;;;;;4.28;1.10;;;;;;;;;;5093861;28;20039;-58
2021/12/29 06:16:31;;;;;;;3.83;0.70;;;;;;;;;;5093412;28;20036;-58
2021/12/29 06:18:56;;;;;;;3.60;1.20;;;;;;;;;;5092908;28;20095;-57
2021/12/29 06:21:21;;;;;;;3.47;1.15;;;;;;;;;;5093358;28;20047;-58
2021/12/29 06:23:47;;;;;;;2.58;0.80;;;;;;;;;;5093618;28;20039;-59
2021/12/29 06:26:13;;;;;;;4.15;0.98;;;;;;;;;;5093791;28;20039;-59
2021/12/29 06:28:38;;;;;;;4.28;1.02;;;;;;;;;;5093572;28;20451;-61
2021/12/29 06:31:03;;;;;;;2.13;0.70;;;;;;;;;;5093195;28;20043;-58
2021/12/29 06:33:28;;;;;;;5.90;1.08;;;;;;;;;;5093499;28;20055;-60
2021/12/29 06:35:54;;;;;;;4.20;1.08;;;;;;;;;;5093072;28;20063;-58
2021/12/29 06:38:19;;;;;;;3.53;1.23;;;;;;;;;;5093427;28;20391;-60
2021/12/29 06:40:44;;;;;;;3.55;0.82;;;;;;;;;;5093741;28;20012;-58
2021/12/29 06:43:09;;;;;;;2.88;0.80;;;;;;;;;;5093164;28;20111;-59
2021/12/29 06:45:35;;;;;;;2.15;0.73;;;;;;;;;;5094177;28;20032;-65
2021/12/29 06:48:00;;;;;;;3.00;1.17;;;;;;;;;;5104630;28;20020;-66
2021/12/29 06:50:25;;;;;;;4.40;0.90;;;;;;;;;;5101442;28;20524;-67
2021/12/29 06:52:50;;;;;;;5.40;1.08;;;;;;;;;;5099252;28;20012;-57
2021/12/29 06:55:16;;;;;;;2.50;1.00;;;;;;;;;;5102587;28;20070;-57
2021/12/29 06:57:41;;;;;;;4.10;1.20;;;;;;;;;;5102581;28;20028;-57
2021/12/29 07:00:07;;;;;;;6.45;1.27;;;;;;;;;;5100904;28;20027;-57
2021/12/29 07:02:32;;;;;;;2.25;0.95;;;;;;;;;;5101570;28;20107;-57
2021/12/29 07:04:57;;;;;;;6.55;1.10;;;;;;;;;;5102373;28;20016;-56
2021/12/29 07:07:22;;;;;;;4.50;0.90;;;;;;;;;;5110241;28;20080;-56
2021/12/29 07:09:48;;;;;;;3.00;1.17;;;;;;;;;;5092916;28;20532;-56
2021/12/29 07:12:13;;;;;;;3.63;1.27;;;;;;;;;;5092764;28;20059;-56
2021/12/29 07:14:39;;;;;;;3.67;1.30;;;;;;;;;;5092303;28;20032;-56
2021/12/29 07:17:05;;;;;;;2.20;0.80;;;;;;;;;;5093491;28;20056;-56
2021/12/29 07:19:31;;;;;;;2.58;0.98;;;;;;;;;;5092610;28;20051;-56
2021/12/29 07:21:56;;;;;;;2.15;0.88;;;;;;;;;;5092456;28;20128;-56
2021/12/29 07:24:21;;;;;;;2.95;1.05;;;;;;;;;;5092535;28;20488;-57
2021/12/29 07:26:46;;;;;;;3.28;1.58;;;;;;;;;;5095016;28;20093;-56
2021/12/29 07:29:12;;;;;;;4.35;1.55;;;;;;;;;;5103956;28;20052;-56
2021/12/29 07:31:37;;;;;;;3.90;1.23;;;;;;;;;;5105986;28;20027;-57
2021/12/29 07:34:02;;;;;;;2.55;1.08;;;;;;;;;;5089513;28;20028;-56
2021/12/29 07:36:28;;;;;;;2.13;0.80;;;;;;;;;;5117259;28;20020;-56
2021/12/29 07:38:53;;;;;;;4.00;1.58;;;;;;;;;;5117113;28;20032;-56
2021/12/29 07:41:19;;;;;;;2.08;1.13;;;;;;;;;;5116997;28;20568;-55
2021/12/29 07:43:44;;;;;;;4.53;1.70;;;;;;;;;;5117640;28;20031;-57
2021/12/29 07:46:11;;;;;;;5.97;1.77;;;;;;;;;;5116451;28;20032;-55
2021/12/29 07:48:37;;;;;;;3.10;1.60;;;;;;;;;;5106673;28;20044;-55
2021/12/29 07:51:04;;;;;;;1.95;1.02;;;;;;;;;;5090610;28;20032;-56
2021/12/29 07:53:29;;;;;;;3.20;1.60;;;;;;;;;;5092304;28;20476;-56
2021/12/29 07:55:54;;;;;;;5.00;1.60;;;;;;;;;;5093602;28;20039;-56
2021/12/29 07:58:20;;;;;;;3.13;1.58;;;;;;;;;;5094172;28;20043;-55
2021/12/29 08:00:46;;;;;;;3.75;0.90;;;;;;;;;;5093766;28;20028;-56
2021/12/29 08:03:12;;;;;;;4.38;1.65;;;;;;;;;;5093811;28;20399;-56
2021/12/29 08:05:38;;;;;;;4.75;1.60;;;;;;;;;;5093640;28;20028;-55
2021/12/29 08:08:05;;;;;;;4.45;1.92;;;;;;;;;;5093553;28;20367;-56
2021/12/29 08:10:31;;;;;;;3.15;1.30;;;;;;;;;;5094257;28;20036;-56
2021/12/29 08:12:56;;;;;;;3.90;1.90;;;;;;;;;;5093264;28;20031;-55
2021/12/29 08:15:21;;;;;;;2.50;1.25;;;;;;;;;;5093000;28;20038;-56
2021/12/29 08:17:46;;;;;;;2.00;1.13;;;;;;;;;;5095363;28;20036;-56
2021/12/29 08:20:12;;;;;;;2.22;1.02;;;;;;;;;;5094014;28;20068;-57
2021/12/29 08:22:37;;;;;;;5.35;1.70;;;;;;;;;;5095036;28;20048;-56
2021/12/29 08:25:04;;;;;;;2.05;0.90;;;;;;;;;;5092629;28;20131;-56
2021/12/29 08:27:29;;;;;;;3.67;1.40;;;;;;;;;;5093057;28;20500;-55
2021/12/29 08:29:54;;;;;;;3.88;1.63;;;;;;;;;;5092924;28;20039;-55
2021/12/29 08:32:20;;;;;;;5.13;1.30;;;;;;;;;;5084293;28;20082;-56
2021/12/29 08:34:46;;;;;;;4.72;1.67;;;;;;;;;;5095434;28;20063;-56
2021/12/29 08:37:11;;;;;;;6.43;1.65;;;;;;;;;;5092903;28;20052;-56
2021/12/29 08:39:36;;;;;;;3.17;1.10;;;;;;;;;;5092867;28;20036;-56
2021/12/29 08:42:02;;;;;;;8.13;1.92;;;;;;;;;;5091948;28;20016;-57
2021/12/29 08:44:27;;;;;;;6.45;1.92;;;;;;;;;;5092758;28;20024;-56
2021/12/29 08:46:52;;;;;;;3.13;0.90;;;;;;;;;;5089687;28;20028;-56
2021/12/29 08:49:18;;;;;;;6.40;0.90;;;;;;;;;;5093549;28;20081;-56
2021/12/29 08:51:43;;;;;;;3.63;1.00;;;;;;;;;;5092228;28;20503;-56
2021/12/29 08:54:08;;;;;;;4.68;1.00;;;;;;;;;;5093289;28;20552;-56
2021/12/29 08:56:33;;;;;;;5.70;1.02;;;;;;;;;;5074275;28;20146;-56
2021/12/29 08:58:59;;;;;;;2.47;0.98;;;;;;;;;;5093283;28;20032;-56
2021/12/29 09:01:24;;;;;;;3.13;0.75;;;;;;;;;;5093810;28;20032;-55
2021/12/29 09:03:50;;;;;;;4.45;1.10;;;;;;;;;;5092871;28;20036;-56
2021/12/29 09:06:16;;;;;;;4.72;1.77;;;;;;;;;;5092831;28;20119;-56
2021/12/29 09:08:42;;;;;;;4.43;0.98;;;;;;;;;;5093315;28;20040;-56
2021/12/29 09:11:07;;;;;;;5.65;1.17;;;;;;;;;;5093147;28;20032;-56
2021/12/29 09:13:33;;;;;;;5.30;0.90;;;;;;;;;;5092277;28;20024;-56
2021/12/29 09:15:58;;;;;;;6.25;1.33;;;;;;;;;;5092879;28;20047;-56
2021/12/29 09:18:25;;;;;;;8.10;0.88;;;;;;;;;;5092107;28;20131;-56
2021/12/29 09:20:50;;;;;;;10.73;2.28;;;;;;;;;;5092724;28;20085;-56
2021/12/29 09:23:16;;;;;;;3.67;0.98;;;;;;;;;;5092504;28;20036;-56
2021/12/29 09:25:42;;;;;;;3.45;1.08;;;;;;;;;;5098980;28;20027;-56
2021/12/29 09:28:08;;;;;;;7.20;1.30;;;;;;;;;;5097068;28;20434;-56
2021/12/29 09:30:34;;;;;;;4.68;1.30;;;;;;;;;;5094285;28;20500;-56
2021/12/29 09:33:02;;;;;;;3.03;0.98;;;;;;;;;;5095737;28;20488;-56
2021/12/29 09:35:28;;;;;;;7.75;1.33;;;;;;;;;;5099124;28;20035;-55
2021/12/29 09:37:53;;;;;;;3.28;0.82;;;;;;;;;;5096596;28;20344;-55
2021/12/29 09:40:20;;;;;;;5.43;1.20;;;;;;;;;;5099612;28;20438;-55
2021/12/29 09:42:46;;;;;;;6.57;1.98;;;;;;;;;;5096421;28;20818;-56
2021/12/29 09:45:12;;;;;;;7.65;1.73;;;;;;;;;;5096094;28;20067;-55
2021/12/29 09:47:38;;;;;;;5.80;1.23;;;;;;;;;;5095323;28;20029;-56
2021/12/29 09:50:05;;;;;;;5.15;1.13;;;;;;;;;;5097111;28;20043;-56
2021/12/29 09:52:33;;;;;;;3.55;0.80;;;;;;;;;;5093809;28;20024;-57
2021/12/29 09:54:59;;;;;;;2.42;0.98;;;;;;;;;;5091665;28;20060;-56
2021/12/29 09:57:24;;;;;;;5.15;1.08;;;;;;;;;;5092309;28;20071;-56
2021/12/29 09:59:49;;;;;;;5.32;1.00;;;;;;;;;;5091728;28;20135;-55
2021/12/29 10:02:14;;;;;;;6.80;1.15;;;;;;;;;;5092577;28;20552;-56
2021/12/29 10:04:40;;;;;;;7.35;1.15;;;;;;;;;;5084390;28;20031;-56
2021/12/29 10:07:15;;;;;;;5.13;1.20;;;;;;;;;;5095569;28;20027;-56
2021/12/29 10:09:40;;;;;;;7.75;2.13;;;;;;;;;;5095968;28;20040;-56
2021/12/29 10:12:10;;;;;;;5.78;1.20;;;;;;;;;;5091951;28;20040;-56
2021/12/29 10:14:35;;;;;;;6.60;1.48;;;;;;;;;;5091183;28;20028;-56
2021/12/29 10:17:02;;;;;;;5.57;1.25;;;;;;;;;;5092573;28;20032;-56
2021/12/29 10:19:34;;;;;;;4.63;1.45;;;;;;;;;;5091956;28;20046;-56
2021/12/29 10:21:59;;;;;;;5.68;1.17;;;;;;;;;;5091476;28;20743;-56
2021/12/29 10:24:25;;;;;;;3.83;1.13;;;;;;;;;;5091202;28;20055;-59
2021/12/29 10:26:54;;;;;;;7.78;1.73;;;;;;;;;;5091639;28;20032;-58
2021/12/29 10:29:20;;;;;;;8.00;1.50;;;;;;;;;;5091961;28;20364;-57
2021/12/29 10:31:47;;;;;;;5.15;0.90;;;;;;;;;;5091216;28;20028;-57
2021/12/29 10:34:23;;;;;;;7.60;1.45;;;;;;;;;;5090371;28;20427;-58
2021/12/29 10:36:53;;;;;;;5.65;1.00;;;;;;;;;;5114066;27;20091;-58
2021/12/29 10:39:23;;;;;;;4.47;1.30;;;;;;;;;;5089841;28;20028;-58
2021/12/29 10:41:51;;;;;;;4.55;1.00;;;;;;;;;;5091575;28;20097;-57
2021/12/29 10:44:24;;;;;;;6.07;1.42;;;;;;;;;;5091599;28;20106;-57
2021/12/29 10:46:49;;;;;;;6.93;1.30;;;;;;;;;;5092655;28;20028;-58
2021/12/29 10:49:14;;;;;;;3.25;1.05;;;;;;;;;;5076765;28;20085;-58
2021/12/29 10:51:43;;;;;;;7.10;1.40;;;;;;;;;;5090601;28;20032;-56
2021/12/29 10:54:08;;;;;;;5.70;1.33;;;;;;;;;;5088704;28;20031;-57
2021/12/29 10:56:34;;;;;;;4.75;0.98;;;;;;;;;;5090406;28;20031;-58
2021/12/29 10:58:59;;;;;;;5.72;1.40;;;;;;;;;;5090614;28;20086;-59
2021/12/29 11:01:24;;;;;;;4.88;1.30;;;;;;;;;;5092740;28;20081;-59
2021/12/29 11:03:55;;;;;;;6.38;1.45;;;;;;;;;;5088535;28;20036;-58
2021/12/29 11:06:21;;;;;;;7.68;1.17;;;;;;;;;;5087801;28;20059;-57
2021/12/29 11:08:51;;;;;;;4.60;1.15;;;;;;;;;;5093594;28;20059;-55
2021/12/29 11:11:18;;;;;;;4.97;0.90;;;;;;;;;;5078774;28;20048;-53
2021/12/29 11:13:44;;;;;;;4.05;1.00;;;;;;;;;;5094709;28;20035;-54
2021/12/29 11:16:09;;;;;;;6.70;2.67;;;;;;;;;;5095565;28;20036;-55
2021/12/29 11:18:47;;;;;;;7.10;2.05;;;;;;;;;;5092584;28;20129;-59
2021/12/29 11:21:14;;;;;;;5.40;1.13;;;;;;;;;;5095042;28;20040;-58
2021/12/29 11:23:41;;;;;;;4.25;1.45;;;;;;;;;;5109410;28;20035;-59
2021/12/29 11:26:11;;;;;;;2.15;0.88;;;;;;;;;;5091468;28;20031;-58
2021/12/29 11:28:36;;;;;;;6.28;1.40;;;;;;;;;;5090574;28;20056;-58
2021/12/29 11:31:03;;;;;;;6.70;1.33;;;;;;;;;;5090399;28;20052;-59
2021/12/29 11:33:30;;;;;;;5.55;1.60;;;;;;;;;;5090991;28;20028;-58
2021/12/29 11:35:55;;;;;;;6.00;1.30;;;;;;;;;;5093011;28;20799;-59
2021/12/29 11:38:22;;;;;;;5.13;1.50;;;;;;;;;;5083364;28;20047;-59
2021/12/29 11:40:52;;;;;;;3.45;1.30;;;;;;;;;;5086921;28;20017;-58
2021/12/29 11:43:18;;;;;;;6.03;1.02;;;;;;;;;;5084420;28;20756;-58
2021/12/29 11:45:44;;;;;;;3.15;1.00;;;;;;;;;;5091896;28;20044;-59
2021/12/29 11:48:11;;;;;;;4.20;1.00;;;;;;;;;;5096083;28;20558;-58
2021/12/29 11:50:38;;;;;;;4.65;0.98;;;;;;;;;;5089916;28;20472;-58
2021/12/29 11:53:04;;;;;;;2.80;1.02;;;;;;;;;;5090824;28;20463;-60
2021/12/29 11:55:32;;;;;;;4.25;1.17;;;;;;;;;;5082760;28;20616;-58
2021/12/29 11:58:07;;;;;;;3.72;1.13;;;;;;;;;;5089820;28;20036;-62
2021/12/29 12:00:32;;;;;;;4.22;0.88;;;;;;;;;;5095747;28;21813;-58
2021/12/29 12:03:05;;;;;;;3.30;1.08;;;;;;;;;;5099452;28;20028;-57
2021/12/29 12:05:35;;;;;;;4.40;0.80;;;;;;;;;;5092081;28;20031;-57
2021/12/29 12:08:07;;;;;;;5.07;1.05;;;;;;;;;;5088313;28;20138;-55
2021/12/29 12:10:35;;;;;;;5.47;1.15;;;;;;;;;;5087037;28;20605;-54
2021/12/29 12:13:02;;;;;;;6.05;1.00;;;;;;;;;;5087005;28;20365;-54
2021/12/29 12:15:36;;;;;;;8.75;1.00;;;;;;;;;;5087951;28;20032;-54
2021/12/29 12:18:08;;;;;;;11.85;1.42;;;;;;;;;;5091451;28;20040;-54
2021/12/29 12:20:38;;;;;;;6.50;1.20;;;;;;;;;;5090268;28;20040;-53
2021/12/29 12:23:03;;;;;;;6.43;1.20;;;;;;;;;;5090338;28;20493;-50
2021/12/29 12:25:29;;;;;;;11.18;1.35;;;;;;;;;;5110513;27;20024;-54
2021/12/29 12:28:01;;;;;;;10.70;1.30;;;;;;;;;;5080070;28;20028;-53
2021/12/29 12:30:27;;;;;;;2.60;0.85;;;;;;;;;;5096948;28;20434;-51
2021/12/29 12:32:52;;;;;;;15.98;1.88;;;;;;;;;;5099389;28;20024;-52
2021/12/29 12:35:37;;;;;;;6.70;1.13;;;;;;;;;;5097207;28;20024;-58
2021/12/29 12:38:13;;;;;;;6.38;1.33;;;;;;;;;;5096172;28;20013;-56
2021/12/29 12:40:41;;;;;;;8.05;1.20;;;;;;;;;;5096453;28;20036;-56
2021/12/29 12:43:12;;;;;;;8.70;0.80;;;;;;;;;;5090182;28;20849;-53
2021/12/29 12:45:46;;;;;;;8.45;1.33;;;;;;;;;;5088523;28;20036;-54
2021/12/29 12:48:12;;;;;;;9.98;1.67;;;;;;;;;;5086653;28;20084;-52
2021/12/29 12:50:39;;;;;;;5.30;0.95;;;;;;;;;;5088975;28;20037;-54
2021/12/29 12:53:04;;;;;;;5.28;1.13;;;;;;;;;;5087525;28;20027;-53
2021/12/29 12:55:32;;;;;;;11.80;1.23;;;;;;;;;;5084731;28;20044;-54
2021/12/29 12:58:10;;;;;;;20.38;1.40;;;;;;;;;;5107077;27;20169;-54
2021/12/29 13:00:40;;;;;;;7.00;1.10;;;;;;;;;;5091017;28;20384;-49
2021/12/29 13:03:07;;;;;;;3.92;1.25;;;;;;;;;;5088723;28;20032;-53
2021/12/29 13:05:38;;;;;;;3.80;0.90;;;;;;;;;;5089603;28;20020;-49
2021/12/29 13:08:09;;;;;;;1.83;0.60;;;;;;;;;;5087435;28;20119;-49
2021/12/29 13:10:37;;;;;;;2.28;0.88;;;;;;;;;;5089738;28;20063;-52
2021/12/29 13:13:14;;;;;;;7.95;1.25;;;;;;;;;;5089751;28;20672;-55
2021/12/29 13:15:40;;;;;;;2.40;1.27;;;;;;;;;;5085537;28;20056;-54
2021/12/29 13:18:07;;;;;;;13.30;1.02;;;;;;;;;;5100902;28;20024;-55
2021/12/29 13:20:32;;;;;;;2.63;0.73;;;;;;;;;;5100934;28;20032;-58
2021/12/29 13:22:58;;;;;;;4.30;1.48;;;;;;;;;;5098540;28;20096;-53
2021/12/29 13:25:31;;;;;;;7.47;0.90;;;;;;;;;;5098899;28;20108;-56
2021/12/29 13:28:05;;;;;;;2.85;0.98;;;;;;;;;;5099727;28;20051;-56
2021/12/29 13:30:44;;;;;;;4.28;1.33;;;;;;;;;;5096050;28;20084;-53
2021/12/29 13:33:09;;;;;;;1.55;0.88;;;;;;;;;;5095585;28;20032;-56
2021/12/29 13:35:37;;;;;;;2.88;0.82;;;;;;;;;;5099396;28;20032;-57
2021/12/29 13:38:06;;;;;;;5.47;1.15;;;;;;;;;;5099044;28;20045;-53
2021/12/29 13:40:34;;;;;;;2.90;0.82;;;;;;;;;;5098582;28;20064;-55
2021/12/29 13:42:59;;;;;;;4.25;0.93;;;;;;;;;;5098982;28;20399;-52
2021/12/29 13:45:26;;;;;;;3.08;0.90;;;;;;;;;;5098860;28;20036;-55
2021/12/29 13:47:51;;;;;;;2.40;0.77;;;;;;;;;;5098171;28;20042;-56
2021/12/29 13:50:17;;;;;;;8.57;0.70;;;;;;;;;;5100025;28;20015;-55
2021/12/29 13:52:53;;;;;;;3.15;1.08;;;;;;;;;;5100538;28;20042;-55
2021/12/29 13:55:25;;;;;;;2.85;1.00;;;;;;;;;;5095525;28;20040;-56
2021/12/29 13:57:54;;;;;;;2.17;0.70;;;;;;;;;;5096428;28;20045;-52
2021/12/29 14:00:19;;;;;;;3.70;1.27;;;;;;;;;;5098146;28;20515;-56
2021/12/29 14:02:45;;;;;;;4.03;0.70;;;;;;;;;;5101771;28;20035;-54
2021/12/29 14:05:11;;;;;;;3.28;1.00;;;;;;;;;;5100057;28;20441;-55
2021/12/29 14:07:37;;;;;;;2.88;0.80;;;;;;;;;;5096712;28;20052;-54
2021/12/29 14:10:03;;;;;;;3.78;1.77;;;;;;;;;;5101231;28;20090;-54
2021/12/29 14:12:33;;;;;;;3.70;0.85;;;;;;;;;;5096359;28;20456;-52
2021/12/29 14:15:00;;;;;;;1.70;1.17;;;;;;;;;;5098913;28;20093;-54
2021/12/29 14:17:25;;;;;;;3.10;1.00;;;;;;;;;;5100231;28;20526;-52
2021/12/29 14:19:52;;;;;;;3.85;0.88;;;;;;;;;;5087470;28;20028;-55
2021/12/29 14:22:21;;;;;;;2.53;1.02;;;;;;;;;;5091798;28;20063;-54
2021/12/29 14:24:46;;;;;;;3.00;0.85;;;;;;;;;;5073721;28;20032;-54
2021/12/29 14:27:12;;;;;;;1.63;0.50;;;;;;;;;;5090168;28;20020;-53
2021/12/29 14:29:37;;;;;;;4.70;0.68;;;;;;;;;;5091683;28;20093;-56
2021/12/29 14:32:04;;;;;;;1.65;0.80;;;;;;;;;;5089869;28;20670;-56
2021/12/29 14:34:44;;;;;;;2.55;0.80;;;;;;;;;;5088210;28;20040;-55
2021/12/29 14:37:11;;;;;;;3.05;0.80;;;;;;;;;;5093097;28;20032;-56
2021/12/29 14:39:39;;;;;;;2.13;0.77;;;;;;;;;;5086578;28;20024;-58
2021/12/29 14:42:28;;;;;;;2.28;0.90;;;;;;;;;;5087682;28;20042;-57
2021/12/29 14:44:53;;;;;;;3.20;1.00;;;;;;;;;;5090051;28;20035;-57
2021/12/29 14:47:19;;;;;;;1.40;0.77;;;;;;;;;;5087397;28;20024;-56